createdAt,value
2019-04-29T00:00:23.966Z,12.77
2019-04-29T00:02:57.846Z,13.01
2019-04-29T00:05:32.249Z,13.19
2019-04-29T00:08:06.043Z,13.15
2019-04-29T00:10:39.891Z,13.23
2019-04-29T00:13:14.277Z,13.28
2019-04-29T00:15:48.263Z,13.33
2019-04-29T00:18:21.729Z,13.31
2019-04-29T00:20:55.615Z,13.46
2019-04-29T00:23:29.355Z,13.64
2019-04-29T00:26:03.239Z,13.78
2019-04-29T00:28:37.429Z,13.92
2019-04-29T00:31:11.139Z,14.10
2019-04-29T00:33:44.916Z,14.18
2019-04-29T00:36:19.968Z,14.13
2019-04-29T00:38:53.771Z,14.20
2019-04-29T00:41:27.498Z,14.22
2019-04-29T00:44:01.386Z,14.15
2019-04-29T00:46:35.082Z,14.22
2019-04-29T00:49:10.479Z,14.37
2019-04-29T00:51:44.168Z,14.50
2019-04-29T00:54:17.919Z,14.54
2019-04-29T00:56:51.805Z,14.70
2019-04-29T00:59:25.245Z,14.66
2019-04-29T01:02:00.932Z,14.77
2019-04-29T01:04:34.619Z,14.86
2019-04-29T01:07:08.841Z,15.13
2019-04-29T01:09:42.792Z,15.13
2019-04-29T01:12:17.299Z,15.32
2019-04-29T01:14:52.870Z,15.08
2019-04-29T01:17:26.605Z,15.22
2019-04-29T01:20:00.578Z,15.23
2019-04-29T01:22:34.950Z,15.39
2019-04-29T01:25:09.630Z,15.27
2019-04-29T01:27:44.096Z,15.23
2019-04-29T01:30:38.307Z,15.28
2019-04-29T01:33:12.601Z,15.57
2019-04-29T01:35:46.825Z,15.90
2019-04-29T01:38:20.435Z,16.07
2019-04-29T01:40:54.471Z,16.00
2019-04-29T01:43:28.445Z,16.20
2019-04-29T01:46:03.818Z,16.46
2019-04-29T01:48:37.480Z,16.53
2019-04-29T01:51:11.487Z,16.60
2019-04-29T01:53:45.397Z,16.59
2019-04-29T01:56:19.270Z,16.43
2019-04-29T01:58:53.164Z,16.48
2019-04-29T02:01:29.894Z,16.39
2019-04-29T02:04:04.492Z,16.81
2019-04-29T02:06:40.623Z,17.11
2019-04-29T02:09:16.878Z,17.16
2019-04-29T02:11:51.574Z,17.09
2019-04-29T02:14:25.382Z,17.21
2019-04-29T02:17:00.685Z,17.16
2019-04-29T02:19:34.422Z,17.18
2019-04-29T02:22:08.168Z,17.50
2019-04-29T02:24:41.924Z,17.42
2019-04-29T02:27:15.790Z,17.85
2019-04-29T02:29:50.692Z,17.76
2019-04-29T02:32:24.526Z,17.59
2019-04-29T02:34:58.319Z,17.59
2019-04-29T02:37:31.761Z,18.11
2019-04-29T02:40:06.551Z,17.67
2019-04-29T02:42:40.849Z,17.74
2019-04-29T02:45:14.933Z,17.70
2019-04-29T02:47:49.065Z,17.50
2019-04-29T02:50:24.375Z,17.40
2019-04-29T02:52:58.021Z,17.42
2019-04-29T02:55:32.684Z,17.55
2019-04-29T02:58:06.836Z,17.81
2019-04-29T03:00:41.042Z,17.80
2019-04-29T03:03:16.608Z,17.89
2019-04-29T03:05:50.369Z,17.89
2019-04-29T03:08:26.274Z,17.81
2019-04-29T03:11:25.547Z,17.66
2019-04-29T03:14:02.202Z,17.55
2019-04-29T03:16:44.268Z,17.73
2019-04-29T03:19:32.027Z,17.61
2019-04-29T03:22:07.035Z,17.50
2019-04-29T03:24:40.954Z,17.42
2019-04-29T03:27:14.719Z,17.52
2019-04-29T03:29:48.577Z,18.00
2019-04-29T03:32:23.774Z,18.47
2019-04-29T03:34:58.002Z,18.67
2019-04-29T03:37:32.228Z,18.84
2019-04-29T03:40:06.705Z,18.70
2019-04-29T03:42:41.558Z,19.02
2019-04-29T03:45:15.941Z,18.58
2019-04-29T03:47:49.573Z,19.28
2019-04-29T03:50:23.614Z,19.40
2019-04-29T03:52:57.519Z,19.37
2019-04-29T03:55:39.947Z,19.12
2019-04-29T03:58:06.286Z,19.53
2019-04-29T04:00:43.897Z,19.64
2019-04-29T04:03:15.624Z,19.41
2019-04-29T04:05:50.240Z,19.19
2019-04-29T04:08:24.980Z,19.08
2019-04-29T04:10:59.497Z,19.19
2019-04-29T04:13:36.511Z,19.63
2019-04-29T04:16:12.735Z,19.45
2019-04-29T04:18:47.957Z,19.74
2019-04-29T04:21:22.863Z,19.94
2019-04-29T04:23:58.250Z,20.04
2019-04-29T04:26:32.784Z,20.03
2019-04-29T04:29:06.865Z,20.20
2019-04-29T04:31:47.695Z,20.25
2019-04-29T04:34:24.783Z,20.47
2019-04-29T04:37:00.323Z,20.46
2019-04-29T04:39:35.322Z,20.04
2019-04-29T04:42:18.770Z,19.88
2019-04-29T04:44:53.542Z,19.77
2019-04-29T04:47:29.168Z,19.90
2019-04-29T04:50:02.904Z,20.18
2019-04-29T04:52:36.823Z,20.37
2019-04-29T04:55:11.888Z,20.28
2019-04-29T04:57:45.620Z,20.76
2019-04-29T05:00:20.890Z,20.66
2019-04-29T05:02:54.944Z,20.64
2019-04-29T05:05:28.435Z,20.64
2019-04-29T05:08:02.666Z,20.78
2019-04-29T05:10:37.813Z,20.95
2019-04-29T05:13:11.687Z,21.24
2019-04-29T05:15:45.935Z,21.11
2019-04-29T05:18:26.912Z,21.09
2019-04-29T05:21:00.623Z,20.82
2019-04-29T05:23:34.302Z,20.62
2019-04-29T05:26:08.259Z,20.42
2019-04-29T05:28:42.647Z,20.56
2019-04-29T05:31:16.378Z,20.07
2019-04-29T05:33:51.285Z,20.54
2019-04-29T05:36:26.473Z,20.25
2019-04-29T05:39:00.222Z,20.17
2019-04-29T05:41:34.864Z,20.26
2019-04-29T05:44:08.856Z,20.56
2019-04-29T05:46:42.617Z,20.69
2019-04-29T05:49:16.744Z,20.65
2019-04-29T05:51:52.257Z,20.89
2019-04-29T05:54:26.928Z,20.77
2019-04-29T05:57:01.374Z,20.73
2019-04-29T05:59:35.860Z,20.60
2019-04-29T06:02:09.665Z,20.16
2019-04-29T06:04:44.111Z,20.08
2019-04-29T06:07:21.514Z,20.07
2019-04-29T06:09:52.703Z,20.03
2019-04-29T06:12:26.987Z,20.21
2019-04-29T06:15:00.609Z,20.32
2019-04-29T06:17:34.674Z,20.02
2019-04-29T06:20:13.059Z,20.31
2019-04-29T06:22:44.254Z,20.41
2019-04-29T06:25:18.515Z,20.65
2019-04-29T06:27:52.256Z,20.43
2019-04-29T06:30:27.565Z,20.27
2019-04-29T06:33:01.702Z,20.05
2019-04-29T06:35:35.442Z,19.98
2019-04-29T06:38:10.996Z,20.19
2019-04-29T06:40:45.066Z,20.27
2019-04-29T06:43:24.388Z,20.26
2019-04-29T06:45:55.636Z,20.04
2019-04-29T06:48:29.365Z,19.76
2019-04-29T06:51:05.432Z,20.03
2019-04-29T06:53:39.031Z,20.03
2019-04-29T06:56:12.904Z,19.65
2019-04-29T06:58:48.971Z,20.03
2019-04-29T07:01:22.926Z,19.92
2019-04-29T07:04:15.366Z,20.25
2019-04-29T07:06:57.082Z,20.35
2019-04-29T07:09:24.469Z,20.10
2019-04-29T07:12:01.623Z,19.73
2019-04-29T07:14:38.525Z,19.34
2019-04-29T07:17:12.268Z,19.36
2019-04-29T07:19:47.823Z,19.36
2019-04-29T07:22:25.775Z,19.26
2019-04-29T07:24:56.632Z,19.19
2019-04-29T07:27:30.308Z,19.07
2019-04-29T07:30:06.581Z,18.84
2019-04-29T07:32:42.018Z,18.86
2019-04-29T07:35:15.623Z,18.95
2019-04-29T07:37:49.819Z,18.61
2019-04-29T07:40:23.959Z,18.65
2019-04-29T07:43:02.892Z,18.93
2019-04-29T07:45:44.070Z,19.31
2019-04-29T07:48:12.895Z,19.08
2019-04-29T07:50:47.201Z,18.82
2019-04-29T07:53:26.925Z,19.06
2019-04-29T07:55:55.843Z,19.15
2019-04-29T07:58:29.794Z,19.37
2019-04-29T08:01:03.721Z,19.02
2019-04-29T08:03:38.440Z,19.38
2019-04-29T08:06:13.228Z,19.17
2019-04-29T08:08:54.834Z,18.54
2019-04-29T08:11:22.286Z,18.30
2019-04-29T08:13:56.562Z,18.16
2019-04-29T08:16:31.585Z,17.83
2019-04-29T08:19:07.110Z,17.86
2019-04-29T08:21:41.524Z,18.23
2019-04-29T08:24:15.768Z,18.44
2019-04-29T08:26:50.019Z,18.31
2019-04-29T08:29:25.276Z,18.63
2019-04-29T08:32:02.217Z,18.66
2019-04-29T08:34:34.777Z,18.59
2019-04-29T08:37:08.674Z,18.49
2019-04-29T08:39:42.340Z,18.41
2019-04-29T08:42:16.697Z,18.36
2019-04-29T08:44:50.332Z,18.15
2019-04-29T08:47:30.538Z,17.96
2019-04-29T08:49:59.416Z,18.02
2019-04-29T08:52:33.084Z,17.86
2019-04-29T08:55:07.878Z,17.81
2019-04-29T08:57:41.392Z,17.79
2019-04-29T09:00:15.539Z,17.38
2019-04-29T09:02:49.520Z,17.38
2019-04-29T09:05:23.072Z,17.26
2019-04-29T09:07:58.719Z,16.82
2019-04-29T09:10:32.963Z,16.68
2019-04-29T09:13:07.163Z,16.74
2019-04-29T09:15:40.900Z,16.60
2019-04-29T09:18:14.685Z,16.38
2019-04-29T09:20:48.573Z,16.58
2019-04-29T09:23:23.815Z,16.72
2019-04-29T09:26:02.948Z,16.60
2019-04-29T09:28:36.523Z,16.29
2019-04-29T09:31:14.365Z,16.08
2019-04-29T09:33:49.126Z,16.12
2019-04-29T09:36:23.337Z,15.91
2019-04-29T09:38:57.207Z,15.91
2019-04-29T09:41:35.063Z,15.92
2019-04-29T09:44:06.070Z,16.05
2019-04-29T09:46:39.880Z,15.91
2019-04-29T09:49:13.627Z,15.97
2019-04-29T09:51:49.269Z,15.45
2019-04-29T09:54:24.554Z,15.32
2019-04-29T09:56:58.455Z,15.28
2019-04-29T09:59:32.222Z,15.51
2019-04-29T10:02:06.202Z,15.40
2019-04-29T10:04:55.209Z,15.27
2019-04-29T10:07:18.664Z,15.27
2019-04-29T10:09:57.297Z,15.30
2019-04-29T10:12:27.820Z,15.23
2019-04-29T10:15:02.720Z,15.21
2019-04-29T10:17:36.948Z,15.12
2019-04-29T10:20:12.595Z,15.00
2019-04-29T10:22:50.227Z,15.10
2019-04-29T10:25:21.941Z,15.09
2019-04-29T10:27:55.892Z,15.12
2019-04-29T10:30:31.151Z,15.11
2019-04-29T10:33:05.683Z,15.06
2019-04-29T10:35:40.803Z,15.06
2019-04-29T10:38:16.795Z,15.06
2019-04-29T10:41:00.751Z,14.95
2019-04-29T10:43:35.822Z,14.84
2019-04-29T10:46:09.770Z,14.70
2019-04-29T10:48:43.749Z,14.58
2019-04-29T10:51:18.142Z,14.43
2019-04-29T10:53:52.692Z,14.76
2019-04-29T10:56:28.230Z,14.84
2019-04-29T10:59:04.498Z,14.65
2019-04-29T11:02:09.116Z,14.56
2019-04-29T11:04:38.409Z,14.57
2019-04-29T11:07:18.460Z,14.38
2019-04-29T11:09:50.908Z,14.51
2019-04-29T11:12:25.814Z,14.26
2019-04-29T11:15:01.794Z,14.34
2019-04-29T11:17:39.759Z,14.09
2019-04-29T11:20:15.912Z,14.18
2019-04-29T11:22:46.977Z,14.22
2019-04-29T11:25:21.755Z,14.15
2019-04-29T11:27:56.247Z,14.03
2019-04-29T11:30:37.490Z,14.02
2019-04-29T11:33:06.301Z,13.99
2019-04-29T11:35:41.620Z,13.87
2019-04-29T11:38:16.368Z,13.88
2019-04-29T11:40:52.541Z,13.97
2019-04-29T11:43:27.620Z,14.04
2019-04-29T11:46:04.875Z,14.01
2019-04-29T11:48:39.981Z,14.08
2019-04-29T11:51:14.463Z,13.99
2019-04-29T11:53:49.499Z,13.95
2019-04-29T11:56:31.531Z,13.70
2019-04-29T11:59:09.893Z,13.97
2019-04-29T12:01:51.642Z,13.88
2019-04-29T12:04:28.671Z,13.86
2019-04-29T12:07:01.733Z,13.67
2019-04-29T12:09:35.626Z,13.67
2019-04-29T12:12:12.899Z,13.62
2019-04-29T12:15:04.975Z,13.57
2019-04-29T12:17:39.604Z,13.52
2019-04-29T12:20:16.354Z,13.41
2019-04-29T12:22:50.555Z,13.44
2019-04-29T12:25:27.525Z,13.62
2019-04-29T12:28:01.869Z,13.69
2019-04-29T12:30:36.559Z,13.59
2019-04-29T12:33:17.530Z,13.59
2019-04-29T12:35:54.456Z,13.51
2019-04-29T12:38:39.410Z,13.28
2019-04-29T12:41:04.195Z,13.21
2019-04-29T12:43:39.411Z,13.14
2019-04-29T12:46:17.702Z,13.24
2019-04-29T12:48:54.028Z,13.27
2019-04-29T12:51:29.883Z,13.25
2019-04-29T12:54:11.638Z,13.09
2019-04-29T12:56:49.460Z,13.28
2019-04-29T12:59:24.792Z,13.24
2019-04-29T13:01:59.523Z,13.23
2019-04-29T13:04:37.496Z,13.17
2019-04-29T13:07:10.410Z,13.12
2019-04-29T13:09:48.418Z,13.21
2019-04-29T13:12:21.283Z,13.20
2019-04-29T13:15:03.014Z,13.05
2019-04-29T13:17:32.295Z,13.04
2019-04-29T13:20:11.630Z,13.09
2019-04-29T13:22:42.537Z,12.98
2019-04-29T13:25:20.823Z,13.05
2019-04-29T13:28:03.946Z,13.02
2019-04-29T13:30:34.287Z,13.06
2019-04-29T13:33:16.545Z,12.95
2019-04-29T13:35:49.710Z,12.97
2019-04-29T13:38:24.901Z,12.94
2019-04-29T13:41:13.094Z,12.99
2019-04-29T13:43:36.113Z,12.88
2019-04-29T13:46:10.808Z,12.88
2019-04-29T13:48:55.437Z,12.77
2019-04-29T13:51:35.233Z,12.80
2019-04-29T13:54:02.343Z,12.69
2019-04-29T13:56:54.559Z,12.68
2019-04-29T13:59:13.780Z,12.73
2019-04-29T14:01:59.913Z,12.60
2019-04-29T14:04:25.994Z,12.62
2019-04-29T14:07:08.041Z,12.66
2019-04-29T14:09:47.743Z,12.57
2019-04-29T14:14:58.589Z,12.41
2019-04-29T14:17:35.742Z,12.34
2019-04-29T14:20:15.802Z,12.34
2019-04-29T14:22:49.031Z,12.40
2019-04-29T14:25:23.762Z,12.33
2019-04-29T14:27:59.090Z,12.42
2019-04-29T14:30:38.945Z,12.25
2019-04-29T14:33:11.001Z,12.29
2019-04-29T14:35:48.234Z,12.13
2019-04-29T14:38:24.078Z,12.25
2019-04-29T14:40:56.581Z,12.13
2019-04-29T14:43:32.059Z,11.98
2019-04-29T14:46:05.880Z,11.84
2019-04-29T14:48:42.649Z,11.91
2019-04-29T14:51:14.852Z,11.86
2019-04-29T14:53:56.449Z,11.88
2019-04-29T14:56:25.370Z,11.82
2019-04-29T14:59:06.560Z,11.76
2019-04-29T15:01:35.954Z,11.82
2019-04-29T15:04:17.790Z,11.76
2019-04-29T15:06:45.538Z,11.62
2019-04-29T15:09:19.971Z,11.60
2019-04-29T15:11:53.803Z,11.66
2019-04-29T15:14:29.219Z,11.68
2019-04-29T15:17:03.101Z,11.58
2019-04-29T15:19:37.004Z,11.62
2019-04-29T15:22:10.998Z,11.52
2019-04-29T15:24:44.702Z,11.42
2019-04-29T15:27:18.877Z,11.37
2019-04-29T15:29:53.096Z,11.48
2019-04-29T15:32:28.597Z,11.47
2019-04-29T15:35:02.959Z,11.45
2019-04-29T15:37:36.751Z,11.49
2019-04-29T15:40:11.599Z,11.47
2019-04-29T15:42:49.108Z,11.50
2019-04-29T15:45:20.231Z,11.42
2019-04-29T15:47:54.494Z,11.34
2019-04-29T15:50:32.523Z,11.37
2019-04-29T15:53:06.181Z,11.32
2019-04-29T15:55:41.292Z,11.38
2019-04-29T15:58:22.436Z,11.40
2019-04-29T16:00:52.912Z,11.39
2019-04-29T16:03:27.008Z,11.20
2019-04-29T16:06:19.924Z,11.19
2019-04-29T16:08:41.193Z,11.30
2019-04-29T16:11:16.967Z,11.40
2019-04-29T16:14:08.299Z,11.35
2019-04-29T16:16:25.446Z,11.33
2019-04-29T16:19:07.298Z,11.23
2019-04-29T16:21:39.270Z,11.21
2019-04-29T16:24:25.990Z,11.29
2019-04-29T16:26:45.991Z,11.16
2019-04-29T16:29:19.807Z,10.98
2019-04-29T16:31:54.903Z,10.87
2019-04-29T16:34:28.692Z,10.99
2019-04-29T16:37:03.157Z,11.07
2019-04-29T16:39:38.917Z,11.09
2019-04-29T16:42:12.792Z,10.97
2019-04-29T16:44:46.803Z,10.98
2019-04-29T16:47:20.500Z,10.97
2019-04-29T16:49:57.544Z,11.03
2019-04-29T16:52:29.058Z,11.06
2019-04-29T16:55:05.848Z,11.10
2019-04-29T16:57:40.728Z,11.13
2019-04-29T17:00:18.299Z,11.09
2019-04-29T17:02:52.041Z,11.02
2019-04-29T17:05:25.712Z,10.92
2019-04-29T17:07:59.940Z,10.88
2019-04-29T17:10:34.874Z,10.91
2019-04-29T17:13:09.092Z,10.87
2019-04-29T17:15:44.623Z,10.65
2019-04-29T17:18:20.921Z,10.68
2019-04-29T17:21:04.615Z,10.67
2019-04-29T17:23:29.645Z,10.63
2019-04-29T17:26:03.996Z,10.52
2019-04-29T17:28:37.589Z,10.37
2019-04-29T17:31:12.848Z,10.42
2019-04-29T17:33:50.032Z,10.38
2019-04-29T17:36:23.882Z,10.32
2019-04-29T17:38:56.682Z,10.27
2019-04-29T17:41:30.404Z,10.25
2019-04-29T17:44:04.160Z,10.14
2019-04-29T17:46:38.030Z,10.18
2019-04-29T17:49:11.574Z,10.08
2019-04-29T17:51:45.932Z,10.04
2019-04-29T17:54:21.407Z,10.02
2019-04-29T17:57:15.356Z,10.01
2019-04-29T17:59:30.821Z,10.04
2019-04-29T18:02:05.381Z,10.20
2019-04-29T18:04:39.221Z,10.25
2019-04-29T18:07:14.704Z,10.29
2019-04-29T18:09:48.513Z,10.24
2019-04-29T18:12:22.155Z,10.28
2019-04-29T18:14:56.102Z,10.18
2019-04-29T18:17:31.310Z,10.20
2019-04-29T18:20:07.070Z,10.31
2019-04-29T18:22:40.478Z,10.32
2019-04-29T18:25:16.363Z,10.36
2019-04-29T18:27:53.167Z,10.36
2019-04-29T18:30:35.398Z,10.40
2019-04-29T18:33:00.455Z,10.23
2019-04-29T18:35:35.802Z,10.25
2019-04-29T18:38:11.974Z,10.25
2019-04-29T18:40:46.380Z,10.15
2019-04-29T18:43:22.845Z,10.17
2019-04-29T18:45:58.733Z,10.04
2019-04-29T18:48:29.670Z,10.05
2019-04-29T18:51:03.434Z,9.77
2019-04-29T18:53:37.132Z,9.93
2019-04-29T18:56:10.784Z,9.94
2019-04-29T18:58:46.864Z,9.91
2019-04-29T19:01:19.720Z,9.84
2019-04-29T19:03:55.631Z,9.69
2019-04-29T19:06:28.949Z,9.61
2019-04-29T19:09:02.958Z,9.50
2019-04-29T19:11:37.178Z,9.52
2019-04-29T19:14:11.596Z,9.51
2019-04-29T19:16:45.902Z,9.45
2019-04-29T19:19:21.051Z,9.49
2019-04-29T19:21:55.935Z,9.43
2019-04-29T19:24:31.434Z,9.39
2019-04-29T19:27:09.151Z,9.36
2019-04-29T19:29:43.238Z,9.38
2019-04-29T19:32:18.914Z,9.23
2019-04-29T19:34:50.040Z,9.21
2019-04-29T19:37:27.133Z,9.25
2019-04-29T19:40:00.095Z,9.22
2019-04-29T19:42:35.926Z,9.15
2019-04-29T19:45:13.360Z,9.11
2019-04-29T19:47:47.056Z,9.07
2019-04-29T19:50:19.713Z,9.10
2019-04-29T19:52:55.442Z,9.08
2019-04-29T19:55:33.327Z,9.06
2019-04-29T19:58:07.271Z,9.17
2019-04-29T20:00:40.740Z,9.18
2019-04-29T20:03:23.036Z,9.23
2019-04-29T20:05:50.319Z,9.16
2019-04-29T20:08:46.368Z,9.18
2019-04-29T20:11:11.425Z,9.18
2019-04-29T20:13:36.404Z,9.20
2019-04-29T20:16:12.785Z,9.22
2019-04-29T20:18:58.425Z,9.20
2019-04-29T20:21:24.669Z,9.07
2019-04-29T20:23:53.647Z,9.27
2019-04-29T20:26:29.688Z,9.36
2019-04-29T20:29:02.352Z,9.37
2019-04-29T20:31:38.868Z,9.32
2019-04-29T20:34:11.258Z,9.25
2019-04-29T20:36:45.724Z,9.16
2019-04-29T20:39:23.213Z,9.30
2019-04-29T20:41:56.434Z,9.27
2019-04-29T20:44:30.587Z,9.26
2019-04-29T20:47:19.772Z,9.22
2019-04-29T20:49:39.908Z,9.20
2019-04-29T20:52:20.353Z,9.25
2019-04-29T20:54:57.765Z,8.97
2019-04-29T20:57:27.725Z,9.11
2019-04-29T21:00:02.380Z,9.14
2019-04-29T21:02:37.445Z,9.19
2019-04-29T21:05:19.604Z,9.08
2019-04-29T21:07:49.086Z,9.08
2019-04-29T21:10:21.570Z,8.98
2019-04-29T21:12:55.756Z,9.09
2019-04-29T21:15:29.530Z,9.07
2019-04-29T21:18:05.427Z,9.23
2019-04-29T21:20:39.264Z,9.26
2019-04-29T21:23:12.865Z,9.32
2019-04-29T21:25:46.612Z,9.35
2019-04-29T21:28:20.752Z,9.37
2019-04-29T21:30:56.706Z,9.39
2019-04-29T21:33:31.250Z,9.47
2019-04-29T21:36:05.339Z,9.50
2019-04-29T21:38:39.288Z,9.48
2019-04-29T21:41:15.493Z,9.39
2019-04-29T21:43:53.403Z,9.48
2019-04-29T21:46:27.798Z,9.74
2019-04-29T21:48:59.762Z,9.80
2019-04-29T21:51:35.418Z,9.90
2019-04-29T21:54:14.262Z,9.91
2019-04-29T21:56:47.781Z,10.06
2019-04-29T21:59:22.019Z,9.99
2019-04-29T22:01:56.214Z,9.92
2019-04-29T22:04:32.833Z,10.27
2019-04-29T22:07:07.971Z,10.43
2019-04-29T22:09:44.759Z,10.35
2019-04-29T22:12:20.128Z,10.25
2019-04-29T22:14:53.948Z,10.22
2019-04-29T22:17:32.964Z,10.19
2019-04-29T22:20:03.904Z,10.16
2019-04-29T22:22:37.151Z,10.13
2019-04-29T22:25:11.641Z,10.35
2019-04-29T22:27:45.412Z,10.32
2019-04-29T22:30:19.995Z,10.50
2019-04-29T22:32:56.145Z,10.41
2019-04-29T22:35:32.862Z,10.34
2019-04-29T22:38:12.081Z,10.21
2019-04-29T22:40:42.933Z,10.24
2019-04-29T22:43:16.760Z,10.28
2019-04-29T22:45:50.772Z,10.28
2019-04-29T22:48:25.044Z,10.35
2019-04-29T22:50:58.847Z,10.66
2019-04-29T22:53:32.583Z,10.83
2019-04-29T22:56:08.963Z,10.92
2019-04-29T22:58:43.848Z,10.94
2019-04-29T23:01:17.857Z,11.00
2019-04-29T23:03:51.717Z,11.03
2019-04-29T23:06:25.896Z,11.14
2019-04-29T23:09:00.175Z,11.14
2019-04-29T23:11:34.795Z,11.40
2019-04-29T23:14:10.047Z,11.41
2019-04-29T23:16:45.467Z,11.42
2019-04-29T23:19:19.570Z,11.56
2019-04-29T23:21:53.079Z,11.61
2019-04-29T23:24:29.096Z,11.79
2019-04-29T23:27:06.087Z,11.99
2019-04-29T23:29:43.283Z,11.90
2019-04-29T23:32:16.159Z,11.92
2019-04-29T23:34:49.993Z,11.91
2019-04-29T23:37:27.142Z,12.14
2019-04-29T23:39:58.607Z,12.27
2019-04-29T23:42:32.494Z,12.42
2019-04-29T23:45:07.650Z,12.55
2019-04-29T23:47:41.814Z,12.69
2019-04-29T23:50:18.782Z,12.64
2019-04-29T23:52:52.052Z,12.61
2019-04-29T23:55:29.120Z,12.74
2019-04-29T23:58:03.672Z,12.83
